M I D A S
Marine Information and Data Acquisition System
Tripno 1569 of the Zeeleeuw from 2008-09-18 06:54:27 to 2008-09-18 15:29:25
Back to CruiseResearch ActivitiesStationsMapUnderway DataData graphs

EquipmentUnitsComments
TimeDGPSUTC
LatitudeDGPSDM.mWGS84
LongitudeDGPSDM.mWGS84
SpeedMeteo Stationm/sRelative wind speed
DirectionMeteo StationdegRelative wind direction
TemperatureMeteo Stationdeg CelciusAir temperature
PressureMeteo StationPaAtmospheric pressure
HumidityMeteo Station%Relative humidity
Missing or incorrect values are displayed as -999
Metereological data collected by the RV Zeeleeuw from 2008-09-18 06:54:27 to 2008-09-18 15:29:25
                                                                                    Next 1000 lines
Time Latitude Longitude Speed Direction Temperature Pressure Humidity
2008-09-18 06:54:40 51°13.623 2°56.048 -999 -999 -999 -999 -999
2008-09-18 06:54:50 51°13.623 2°56.048 -999 -999 -999 -999 -999
2008-09-18 06:55:00 51°13.623 2°56.047 -999 -999 -999 -999 -999
2008-09-18 06:55:10 51°13.623 2°56.047 -999 -999 -999 -999 -999
2008-09-18 06:55:20 51°13.623 2°56.048 -999 -999 -999 -999 -999
2008-09-18 06:55:30 51°13.623 2°56.048 -999 -999 -999 -999 -999
2008-09-18 06:55:40 51°13.623 2°56.048 -999 -999 -999 -999 -999
2008-09-18 06:55:50 51°13.623 2°56.048 -999 -999 -999 -999 -999
2008-09-18 06:56:00 51°13.622 2°56.047 -999 -999 -999 -999 -999
2008-09-18 06:56:10 51°13.622 2°56.047 -999 -999 -999 -999 -999
2008-09-18 06:56:20 51°13.622 2°56.047 -999 -999 -999 -999 -999
2008-09-18 06:56:30 51°13.622 2°56.047 -999 -999 -999 -999 -999
2008-09-18 06:56:40 51°13.622 2°56.046 -999 -999 -999 -999 -999
2008-09-18 06:56:50 51°13.623 2°56.04 -999 -999 -999 -999 -999
2008-09-18 06:57:00 51°13.625 2°56.033 -999 -999 -999 -999 -999
2008-09-18 06:57:10 51°13.628 2°56.022 -999 -999 -999 -999 -999
2008-09-18 06:57:20 51°13.632 2°56.007 -999 -999 -999 -999 -999
2008-09-18 06:57:30 51°13.636 2°55.993 -999 -999 -999 -999 -999
2008-09-18 06:57:40 51°13.641 2°55.976 -999 -999 -999 -999 -999
2008-09-18 06:57:50 51°13.646 2°55.956 -999 -999 -999 -999 -999
2008-09-18 06:58:00 51°13.65 2°55.939 -999 -999 -999 -999 -999
2008-09-18 06:58:10 51°13.656 2°55.92 -999 -999 -999 -999 -999
2008-09-18 06:58:20 51°13.662 2°55.898 -999 -999 -999 -999 -999
2008-09-18 06:58:30 51°13.667 2°55.882 -999 -999 -999 -999 -999
2008-09-18 06:58:40 51°13.672 2°55.863 -999 -999 -999 -999 -999
2008-09-18 06:58:50 51°13.676 2°55.848 -999 -999 -999 -999 -999
2008-09-18 06:59:00 51°13.68 2°55.833 -999 -999 -999 -999 -999
2008-09-18 06:59:10 51°13.684 2°55.818 -999 -999 -999 -999 -999
2008-09-18 06:59:20 51°13.687 2°55.803 -999 -999 -999 -999 -999
2008-09-18 06:59:30 51°13.69 2°55.79 -999 -999 -999 -999 -999
2008-09-18 06:59:40 51°13.692 2°55.776 -999 -999 -999 -999 -999
2008-09-18 06:59:50 51°13.694 2°55.766 -999 -999 -999 -999 -999
2008-09-18 07:00:00 51°13.695 2°55.755 -999 -999 -999 -999 -999
2008-09-18 07:00:10 51°13.696 2°55.747 -999 -999 -999 -999 -999
2008-09-18 07:00:20 51°13.697 2°55.741 -999 -999 -999 -999 -999
2008-09-18 07:00:30 51°13.698 2°55.739 -999 -999 -999 -999 -999
2008-09-18 07:00:40 51°13.699 2°55.743 -999 -999 -999 -999 -999
2008-09-18 07:00:50 51°13.702 2°55.747 -999 -999 -999 -999 -999
2008-09-18 07:01:00 51°13.703 2°55.749 -999 -999 -999 -999 -999
2008-09-18 07:01:10 51°13.702 2°55.747 -999 -999 -999 -999 -999
2008-09-18 07:01:20 51°13.7 2°55.744 -999 -999 -999 -999 -999
2008-09-18 07:01:30 51°13.696 2°55.738 -999 -999 -999 -999 -999
2008-09-18 07:01:40 51°13.693 2°55.734 -999 -999 -999 -999 -999
2008-09-18 07:01:50 51°13.692 2°55.732 -999 -999 -999 -999 -999
2008-09-18 07:02:00 51°13.696 2°55.733 -999 -999 -999 -999 -999
2008-09-18 07:02:10 51°13.703 2°55.732 -999 -999 -999 -999 -999
2008-09-18 07:02:20 51°13.712 2°55.728 -999 -999 -999 -999 -999
2008-09-18 07:02:30 51°13.725 2°55.72 -999 -999 -999 -999 -999
2008-09-18 07:02:40 51°13.74 2°55.707 -999 -999 -999 -999 -999
2008-09-18 07:02:50 51°13.755 2°55.696 -999 -999 -999 -999 -999
2008-09-18 07:03:00 51°13.771 2°55.682 -999 -999 -999 -999 -999
2008-09-18 07:03:10 51°13.788 2°55.668 -999 -999 -999 -999 -999
2008-09-18 07:03:20 51°13.804 2°55.656 -999 -999 -999 -999 -999
2008-09-18 07:03:30 51°13.82 2°55.643 -999 -999 -999 -999 -999
2008-09-18 07:03:40 51°13.836 2°55.631 -999 -999 -999 -999 -999
2008-09-18 07:03:50 51°13.851 2°55.619 -999 -999 -999 -999 -999
2008-09-18 07:04:00 51°13.867 2°55.607 -999 -999 -999 -999 -999
2008-09-18 07:04:10 51°13.884 2°55.593 -999 -999 -999 -999 -999
2008-09-18 07:04:20 51°13.898 2°55.582 -999 -999 -999 -999 -999
2008-09-18 07:04:30 51°13.913 2°55.57 -999 -999 -999 -999 -999
2008-09-18 07:04:40 51°13.93 2°55.556 -999 -999 -999 -999 -999
2008-09-18 07:04:50 51°13.944 2°55.545 -999 -999 -999 -999 -999
2008-09-18 07:05:00 51°13.959 2°55.533 -999 -999 -999 -999 -999
2008-09-18 07:05:10 51°13.976 2°55.52 -999 -999 -999 -999 -999
2008-09-18 07:05:20 51°13.99 2°55.509 -999 -999 -999 -999 -999
2008-09-18 07:05:30 51°14.005 2°55.497 -999 -999 -999 -999 -999
2008-09-18 07:05:40 51°14.02 2°55.486 -999 -999 -999 -999 -999
2008-09-18 07:05:50 51°14.036 2°55.474 -999 -999 -999 -999 -999
2008-09-18 07:06:00 51°14.053 2°55.461 -999 -999 -999 -999 -999
2008-09-18 07:06:10 51°14.067 2°55.451 -999 -999 -999 -999 -999
2008-09-18 07:06:20 51°14.082 2°55.439 -999 -999 -999 -999 -999
2008-09-18 07:06:30 51°14.099 2°55.426 -999 -999 -999 -999 -999
2008-09-18 07:06:40 51°14.114 2°55.415 -999 -999 -999 -999 -999
2008-09-18 07:06:50 51°14.13 2°55.401 -999 -999 -999 -999 -999
2008-09-18 07:07:00 51°14.149 2°55.386 -999 -999 -999 -999 -999
2008-09-18 07:07:10 51°14.168 2°55.368 -999 -999 -999 -999 -999
2008-09-18 07:07:20 51°14.188 2°55.349 -999 -999 -999 -999 -999
2008-09-18 07:07:30 51°14.207 2°55.327 -999 -999 -999 -999 -999
2008-09-18 07:07:40 51°14.227 2°55.303 -999 -999 -999 -999 -999
2008-09-18 07:07:50 51°14.246 2°55.278 -999 -999 -999 -999 -999
2008-09-18 07:08:00 51°14.264 2°55.249 -999 -999 -999 -999 -999
2008-09-18 07:08:10 51°14.282 2°55.22 -999 -999 -999 -999 -999
2008-09-18 07:08:20 51°14.299 2°55.189 -999 -999 -999 -999 -999
2008-09-18 07:08:30 51°14.316 2°55.158 -999 -999 -999 -999 -999
2008-09-18 07:08:40 51°14.333 2°55.125 -999 -999 -999 -999 -999
2008-09-18 07:08:50 51°14.349 2°55.092 -999 -999 -999 -999 -999
2008-09-18 07:09:00 51°14.367 2°55.054 -999 -999 -999 -999 -999
2008-09-18 07:09:10 51°14.383 2°55.023 -999 -999 -999 -999 -999
2008-09-18 07:09:20 51°14.402 2°54.992 -999 -999 -999 -999 -999
2008-09-18 07:09:30 51°14.422 2°54.962 -999 -999 -999 -999 -999
2008-09-18 07:09:40 51°14.444 2°54.934 -999 -999 -999 -999 -999
2008-09-18 07:09:50 51°14.466 2°54.907 -999 -999 -999 -999 -999
2008-09-18 07:10:00 51°14.489 2°54.881 -999 -999 -999 -999 -999
2008-09-18 07:10:10 51°14.513 2°54.853 -999 -999 -999 -999 -999
2008-09-18 07:10:20 51°14.537 2°54.824 -999 -999 -999 -999 -999
2008-09-18 07:10:30 51°14.562 2°54.795 -999 -999 -999 -999 -999
2008-09-18 07:10:40 51°14.591 2°54.763 -999 -999 -999 -999 -999
2008-09-18 07:10:50 51°14.615 2°54.736 -999 -999 -999 -999 -999
2008-09-18 07:11:00 51°14.641 2°54.706 -999 -999 -999 -999 -999
2008-09-18 07:11:10 51°14.668 2°54.675 -999 -999 -999 -999 -999
2008-09-18 07:11:20 51°14.695 2°54.643 -999 -999 -999 -999 -999
2008-09-18 07:11:30 51°14.722 2°54.611 -999 -999 -999 -999 -999
2008-09-18 07:11:40 51°14.75 2°54.58 -999 -999 -999 -999 -999
2008-09-18 07:11:50 51°14.777 2°54.549 -999 -999 -999 -999 -999
2008-09-18 07:12:00 51°14.804 2°54.519 -999 -999 -999 -999 -999
2008-09-18 07:12:10 51°14.832 2°54.489 -999 -999 -999 -999 -999
2008-09-18 07:12:20 51°14.86 2°54.461 -999 -999 -999 -999 -999
2008-09-18 07:12:30 51°14.888 2°54.432 -999 -999 -999 -999 -999
2008-09-18 07:12:40 51°14.916 2°54.404 -999 -999 -999 -999 -999
2008-09-18 07:12:50 51°14.944 2°54.377 -999 -999 -999 -999 -999
2008-09-18 07:13:00 51°14.972 2°54.35 -999 -999 -999 -999 -999
2008-09-18 07:13:10 51°15 2°54.324 -999 -999 -999 -999 -999
2008-09-18 07:13:20 51°15.029 2°54.299 -999 -999 -999 -999 -999
2008-09-18 07:13:30 51°15.057 2°54.276 -999 -999 -999 -999 -999
2008-09-18 07:13:40 51°15.087 2°54.252 -999 -999 -999 -999 -999
2008-09-18 07:13:50 51°15.116 2°54.23 -999 -999 -999 -999 -999
2008-09-18 07:14:00 51°15.145 2°54.206 -999 -999 -999 -999 -999
2008-09-18 07:14:10 51°15.174 2°54.181 -999 -999 -999 -999 -999
2008-09-18 07:14:20 51°15.204 2°54.157 -999 -999 -999 -999 -999
2008-09-18 07:14:30 51°15.234 2°54.134 -999 -999 -999 -999 -999
2008-09-18 07:14:40 51°15.263 2°54.11 -999 -999 -999 -999 -999
2008-09-18 07:14:50 51°15.292 2°54.085 -999 -999 -999 -999 -999
2008-09-18 07:15:00 51°15.322 2°54.06 -999 -999 -999 -999 -999
2008-09-18 07:15:10 51°15.351 2°54.035 -999 -999 -999 -999 -999
2008-09-18 07:15:20 51°15.38 2°54.01 -999 -999 -999 -999 -999
2008-09-18 07:15:30 51°15.409 2°53.986 -999 -999 -999 -999 -999
2008-09-18 07:15:40 51°15.44 2°53.964 -999 -999 -999 -999 -999
2008-09-18 07:15:50 51°15.47 2°53.942 -999 -999 -999 -999 -999
2008-09-18 07:16:00 51°15.499 2°53.917 -999 -999 -999 -999 -999
2008-09-18 07:16:10 51°15.528 2°53.892 -999 -999 -999 -999 -999
2008-09-18 07:16:20 51°15.558 2°53.866 -999 -999 -999 -999 -999
2008-09-18 07:16:30 51°15.587 2°53.84 -999 -999 -999 -999 -999
2008-09-18 07:16:40 51°15.617 2°53.816 -999 -999 -999 -999 -999
2008-09-18 07:16:50 51°15.647 2°53.791 -999 -999 -999 -999 -999
2008-09-18 07:17:00 51°15.676 2°53.766 -999 -999 -999 -999 -999
2008-09-18 07:17:10 51°15.706 2°53.741 -999 -999 -999 -999 -999
2008-09-18 07:17:20 51°15.736 2°53.715 -999 -999 -999 -999 -999
2008-09-18 07:17:30 51°15.765 2°53.689 -999 -999 -999 -999 -999
2008-09-18 07:17:40 51°15.795 2°53.664 -999 -999 -999 -999 -999
2008-09-18 07:17:50 51°15.825 2°53.638 -999 -999 -999 -999 -999
2008-09-18 07:18:00 51°15.854 2°53.612 -999 -999 -999 -999 -999
2008-09-18 07:18:10 51°15.884 2°53.585 -999 -999 -999 -999 -999
2008-09-18 07:18:20 51°15.913 2°53.559 -999 -999 -999 -999 -999
2008-09-18 07:18:30 51°15.942 2°53.531 -999 -999 -999 -999 -999
2008-09-18 07:18:40 51°15.971 2°53.503 -999 -999 -999 -999 -999
2008-09-18 07:18:50 51°16 2°53.474 -999 -999 -999 -999 -999
2008-09-18 07:19:00 51°16.028 2°53.445 -999 -999 -999 -999 -999
2008-09-18 07:19:10 51°16.057 2°53.415 -999 -999 -999 -999 -999
2008-09-18 07:19:20 51°16.085 2°53.386 -999 -999 -999 -999 -999
2008-09-18 07:19:30 51°16.114 2°53.357 -999 -999 -999 -999 -999
2008-09-18 07:19:40 51°16.143 2°53.328 -999 -999 -999 -999 -999
2008-09-18 07:19:50 51°16.172 2°53.3 -999 -999 -999 -999 -999
2008-09-18 07:20:00 51°16.2 2°53.271 -999 -999 -999 -999 -999
2008-09-18 07:20:10 51°16.229 2°53.243 -999 -999 -999 -999 -999
2008-09-18 07:20:20 51°16.258 2°53.214 -999 -999 -999 -999 -999
2008-09-18 07:20:30 51°16.287 2°53.185 -999 -999 -999 -999 -999
2008-09-18 07:20:40 51°16.316 2°53.157 -999 -999 -999 -999 -999
2008-09-18 07:20:50 51°16.345 2°53.129 -999 -999 -999 -999 -999
2008-09-18 07:21:00 51°16.374 2°53.101 -999 -999 -999 -999 -999
2008-09-18 07:21:10 51°16.403 2°53.074 -999 -999 -999 -999 -999
2008-09-18 07:21:20 51°16.432 2°53.048 -999 -999 -999 -999 -999
2008-09-18 07:21:30 51°16.462 2°53.024 -999 -999 -999 -999 -999
2008-09-18 07:21:40 51°16.492 2°52.999 -999 -999 -999 -999 -999
2008-09-18 07:21:50 51°16.522 2°52.974 -999 -999 -999 -999 -999
2008-09-18 07:22:00 51°16.552 2°52.949 -999 -999 -999 -999 -999
2008-09-18 07:22:10 51°16.582 2°52.925 -999 -999 -999 -999 -999
2008-09-18 07:22:20 51°16.612 2°52.901 -999 -999 -999 -999 -999
2008-09-18 07:22:30 51°16.645 2°52.875 -999 -999 -999 -999 -999
2008-09-18 07:22:40 51°16.672 2°52.854 -999 -999 -999 -999 -999
2008-09-18 07:22:50 51°16.702 2°52.83 -999 -999 -999 -999 -999
2008-09-18 07:23:00 51°16.732 2°52.807 -999 -999 -999 -999 -999
2008-09-18 07:23:10 51°16.762 2°52.784 -999 -999 -999 -999 -999
2008-09-18 07:23:20 51°16.792 2°52.761 -999 -999 -999 -999 -999
2008-09-18 07:23:30 51°16.822 2°52.739 -999 -999 -999 -999 -999
2008-09-18 07:23:40 51°16.852 2°52.717 -999 -999 -999 -999 -999
2008-09-18 07:23:50 51°16.882 2°52.698 -999 -999 -999 -999 -999
2008-09-18 07:24:00 51°16.913 2°52.679 -999 -999 -999 -999 -999
2008-09-18 07:24:10 51°16.943 2°52.66 -999 -999 -999 -999 -999
2008-09-18 07:24:20 51°16.974 2°52.641 -999 -999 -999 -999 -999
2008-09-18 07:24:30 51°17.005 2°52.623 -999 -999 -999 -999 -999
2008-09-18 07:24:40 51°17.037 2°52.608 -999 -999 -999 -999 -999
2008-09-18 07:24:50 51°17.068 2°52.594 -999 -999 -999 -999 -999
2008-09-18 07:25:00 51°17.099 2°52.581 -999 -999 -999 -999 -999
2008-09-18 07:25:10 51°17.13 2°52.569 -999 -999 -999 -999 -999
2008-09-18 07:25:20 51°17.165 2°52.557 -999 -999 -999 -999 -999
2008-09-18 07:25:30 51°17.194 2°52.547 -999 -999 -999 -999 -999
2008-09-18 07:25:40 51°17.225 2°52.536 -999 -999 -999 -999 -999
2008-09-18 07:25:50 51°17.26 2°52.524 -999 -999 -999 -999 -999
2008-09-18 07:26:00 51°17.288 2°52.515 -999 -999 -999 -999 -999
2008-09-18 07:26:10 51°17.32 2°52.505 -999 -999 -999 -999 -999
2008-09-18 07:26:20 51°17.352 2°52.496 -999 -999 -999 -999 -999
2008-09-18 07:26:30 51°17.384 2°52.486 -999 -999 -999 -999 -999
2008-09-18 07:26:40 51°17.416 2°52.478 -999 -999 -999 -999 -999
2008-09-18 07:26:50 51°17.448 2°52.47 -999 -999 -999 -999 -999
2008-09-18 07:27:00 51°17.48 2°52.463 -999 -999 -999 -999 -999
2008-09-18 07:27:10 51°17.512 2°52.457 -999 -999 -999 -999 -999
2008-09-18 07:27:20 51°17.544 2°52.452 -999 -999 -999 -999 -999
2008-09-18 07:27:30 51°17.578 2°52.448 -999 -999 -999 -999 -999
2008-09-18 07:27:40 51°17.607 2°52.447 -999 -999 -999 -999 -999
2008-09-18 07:27:50 51°17.639 2°52.445 -999 -999 -999 -999 -999
2008-09-18 07:28:00 51°17.674 2°52.443 -999 -999 -999 -999 -999
2008-09-18 07:28:10 51°17.706 2°52.442 -999 -999 -999 -999 -999
2008-09-18 07:28:20 51°17.734 2°52.44 -999 -999 -999 -999 -999
2008-09-18 07:28:30 51°17.766 2°52.441 -999 -999 -999 -999 -999
2008-09-18 07:28:40 51°17.797 2°52.442 -999 -999 -999 -999 -999
2008-09-18 07:28:50 51°17.829 2°52.444 -999 -999 -999 -999 -999
2008-09-18 07:29:00 51°17.861 2°52.447 -999 -999 -999 -999 -999
2008-09-18 07:29:10 51°17.892 2°52.449 -999 -999 -999 -999 -999
2008-09-18 07:29:20 51°17.924 2°52.451 -999 -999 -999 -999 -999
2008-09-18 07:29:30 51°17.956 2°52.453 -999 -999 -999 -999 -999
2008-09-18 07:29:40 51°17.987 2°52.458 -999 -999 -999 -999 -999
2008-09-18 07:29:50 51°18.018 2°52.465 -999 -999 -999 -999 -999
2008-09-18 07:30:00 51°18.049 2°52.473 -999 -999 -999 -999 -999
2008-09-18 07:30:10 51°18.083 2°52.482 -999 -999 -999 -999 -999
2008-09-18 07:30:20 51°18.114 2°52.491 -999 -999 -999 -999 -999
2008-09-18 07:30:30 51°18.145 2°52.5 -999 -999 -999 -999 -999
2008-09-18 07:30:40 51°18.176 2°52.509 -999 -999 -999 -999 -999
2008-09-18 07:30:50 51°18.207 2°52.517 -999 -999 -999 -999 -999
2008-09-18 07:31:00 51°18.235 2°52.525 -999 -999 -999 -999 -999
2008-09-18 07:31:10 51°18.266 2°52.533 -999 -999 -999 -999 -999
2008-09-18 07:31:20 51°18.3 2°52.542 -999 -999 -999 -999 -999
2008-09-18 07:31:30 51°18.328 2°52.55 -999 -999 -999 -999 -999
2008-09-18 07:31:40 51°18.359 2°52.559 -999 -999 -999 -999 -999
2008-09-18 07:31:50 51°18.39 2°52.567 -999 -999 -999 -999 -999
2008-09-18 07:32:00 51°18.421 2°52.575 -999 -999 -999 -999 -999
2008-09-18 07:32:10 51°18.452 2°52.583 -999 -999 -999 -999 -999
2008-09-18 07:32:20 51°18.483 2°52.591 -999 -999 -999 -999 -999
2008-09-18 07:32:30 51°18.514 2°52.6 -999 -999 -999 -999 -999
2008-09-18 07:32:40 51°18.549 2°52.609 -999 -999 -999 -999 -999
2008-09-18 07:32:50 51°18.577 2°52.617 -999 -999 -999 -999 -999
2008-09-18 07:33:00 51°18.611 2°52.626 -999 -999 -999 -999 -999
2008-09-18 07:33:10 51°18.642 2°52.635 -999 -999 -999 -999 -999
2008-09-18 07:33:20 51°18.67 2°52.642 -999 -999 -999 -999 -999
2008-09-18 07:33:30 51°18.701 2°52.65 -999 -999 -999 -999 -999
2008-09-18 07:33:40 51°18.736 2°52.659 -999 -999 -999 -999 -999
2008-09-18 07:33:50 51°18.767 2°52.667 -999 -999 -999 -999 -999
2008-09-18 07:34:00 51°18.795 2°52.674 -999 -999 -999 -999 -999
2008-09-18 07:34:10 51°18.826 2°52.682 -999 -999 -999 -999 -999
2008-09-18 07:34:20 51°18.861 2°52.691 -999 -999 -999 -999 -999
2008-09-18 07:34:30 51°18.892 2°52.698 -999 -999 -999 -999 -999
2008-09-18 07:34:40 51°18.92 2°52.705 -999 -999 -999 -999 -999
2008-09-18 07:34:50 51°18.952 2°52.713 -999 -999 -999 -999 -999
2008-09-18 07:35:00 51°18.986 2°52.721 -999 -999 -999 -999 -999
2008-09-18 07:35:10 51°19.017 2°52.729 -999 -999 -999 -999 -999
2008-09-18 07:35:20 51°19.045 2°52.739 -999 -999 -999 -999 -999
2008-09-18 07:35:30 51°19.078 2°52.754 -999 -999 -999 -999 -999
2008-09-18 07:35:40 51°19.108 2°52.769 -999 -999 -999 -999 -999
2008-09-18 07:35:50 51°19.134 2°52.784 -999 -999 -999 -999 -999
2008-09-18 07:36:00 51°19.167 2°52.803 -999 -999 -999 -999 -999
2008-09-18 07:36:10 51°19.196 2°52.82 -999 -999 -999 -999 -999
2008-09-18 07:36:20 51°19.222 2°52.835 -999 -999 -999 -999 -999
2008-09-18 07:36:30 51°19.254 2°52.855 -999 -999 -999 -999 -999
2008-09-18 07:36:40 51°19.282 2°52.874 -999 -999 -999 -999 -999
2008-09-18 07:36:50 51°19.308 2°52.891 -999 -999 -999 -999 -999
2008-09-18 07:37:00 51°19.339 2°52.912 -999 -999 -999 -999 -999
2008-09-18 07:37:10 51°19.367 2°52.932 -999 -999 -999 -999 -999
2008-09-18 07:37:20 51°19.393 2°52.949 -999 -999 -999 -999 -999
2008-09-18 07:37:30 51°19.422 2°52.966 -999 -999 -999 -999 -999
2008-09-18 07:37:40 51°19.455 2°52.983 -999 -999 -999 -999 -999
2008-09-18 07:37:50 51°19.484 2°53 -999 -999 -999 -999 -999
2008-09-18 07:38:00 51°19.51 2°53.017 -999 -999 -999 -999 -999
2008-09-18 07:38:10 51°19.542 2°53.036 -999 -999 -999 -999 -999
2008-09-18 07:38:20 51°19.571 2°53.051 -999 -999 -999 -999 -999
2008-09-18 07:38:30 51°19.601 2°53.065 -999 -999 -999 -999 -999
2008-09-18 07:38:40 51°19.629 2°53.08 -999 -999 -999 -999 -999
2008-09-18 07:38:50 51°19.655 2°53.095 -999 -999 -999 -999 -999
2008-09-18 07:39:00 51°19.687 2°53.114 -999 -999 -999 -999 -999
2008-09-18 07:39:10 51°19.715 2°53.131 -999 -999 -999 -999 -999
2008-09-18 07:39:20 51°19.741 2°53.146 -999 -999 -999 -999 -999
2008-09-18 07:39:30 51°19.773 2°53.164 -999 -999 -999 -999 -999
2008-09-18 07:39:40 51°19.801 2°53.179 -999 -999 -999 -999 -999
2008-09-18 07:39:50 51°19.827 2°53.192 -999 -999 -999 -999 -999
2008-09-18 07:40:00 51°19.856 2°53.205 -999 -999 -999 -999 -999
2008-09-18 07:40:10 51°19.889 2°53.219 -999 -999 -999 -999 -999
2008-09-18 07:40:20 51°19.918 2°53.232 -999 -999 -999 -999 -999
2008-09-18 07:40:30 51°19.944 2°53.243 -999 -999 -999 -999 -999
2008-09-18 07:40:40 51°19.977 2°53.256 -999 -999 -999 -999 -999
2008-09-18 07:40:50 51°20.007 2°53.267 -999 -999 -999 -999 -999
2008-09-18 07:41:00 51°20.037 2°53.278 -999 -999 -999 -999 -999
2008-09-18 07:41:10 51°20.067 2°53.289 -999 -999 -999 -999 -999
2008-09-18 07:41:20 51°20.097 2°53.3 -999 -999 -999 -999 -999
2008-09-18 07:41:30 51°20.127 2°53.31 -999 -999 -999 -999 -999
2008-09-18 07:41:40 51°20.157 2°53.321 -999 -999 -999 -999 -999
2008-09-18 07:41:50 51°20.187 2°53.333 -999 -999 -999 -999 -999
2008-09-18 07:42:00 51°20.217 2°53.344 -999 -999 -999 -999 -999
2008-09-18 07:42:10 51°20.248 2°53.355 -999 -999 -999 -999 -999
2008-09-18 07:42:20 51°20.275 2°53.365 -999 -999 -999 -999 -999
2008-09-18 07:42:30 51°20.308 2°53.377 -999 -999 -999 -999 -999
2008-09-18 07:42:40 51°20.338 2°53.389 -999 -999 -999 -999 -999
2008-09-18 07:42:50 51°20.368 2°53.4 -999 -999 -999 -999 -999
2008-09-18 07:43:00 51°20.398 2°53.413 -999 -999 -999 -999 -999
2008-09-18 07:43:10 51°20.427 2°53.426 -999 -999 -999 -999 -999
2008-09-18 07:43:20 51°20.457 2°53.441 -999 -999 -999 -999 -999
2008-09-18 07:43:30 51°20.486 2°53.454 -999 -999 -999 -999 -999
2008-09-18 07:43:40 51°20.512 2°53.468 -999 -999 -999 -999 -999
2008-09-18 07:43:50 51°20.544 2°53.484 -999 -999 -999 -999 -999
2008-09-18 07:44:00 51°20.573 2°53.498 -999 -999 -999 -999 -999
2008-09-18 07:44:10 51°20.602 2°53.512 -999 -999 -999 -999 -999
2008-09-18 07:44:20 51°20.628 2°53.525 -999 -999 -999 -999 -999
2008-09-18 07:44:30 51°20.66 2°53.541 -999 -999 -999 -999 -999
2008-09-18 07:44:40 51°20.689 2°53.555 -999 -999 -999 -999 -999
2008-09-18 07:44:50 51°20.718 2°53.568 -999 -999 -999 -999 -999
2008-09-18 07:45:00 51°20.745 2°53.58 -999 -999 -999 -999 -999
2008-09-18 07:45:10 51°20.778 2°53.592 -999 -999 -999 -999 -999
2008-09-18 07:45:20 51°20.808 2°53.603 -999 -999 -999 -999 -999
2008-09-18 07:45:30 51°20.838 2°53.615 -999 -999 -999 -999 -999
2008-09-18 07:45:40 51°20.867 2°53.627 -999 -999 -999 -999 -999
2008-09-18 07:45:50 51°20.897 2°53.638 -999 -999 -999 -999 -999
2008-09-18 07:46:00 51°20.927 2°53.651 -999 -999 -999 -999 -999
2008-09-18 07:46:10 51°20.953 2°53.664 -999 -999 -999 -999 -999
2008-09-18 07:46:20 51°20.985 2°53.68 -999 -999 -999 -999 -999
2008-09-18 07:46:30 51°21.015 2°53.694 -999 -999 -999 -999 -999
2008-09-18 07:46:40 51°21.044 2°53.708 -999 -999 -999 -999 -999
2008-09-18 07:46:50 51°21.071 2°53.719 -999 -999 -999 -999 -999
2008-09-18 07:47:00 51°21.104 2°53.732 -999 -999 -999 -999 -999
2008-09-18 07:47:10 51°21.134 2°53.744 -999 -999 -999 -999 -999
2008-09-18 07:47:20 51°21.164 2°53.757 -999 -999 -999 -999 -999
2008-09-18 07:47:30 51°21.194 2°53.769 -999 -999 -999 -999 -999
2008-09-18 07:47:40 51°21.225 2°53.781 -999 -999 -999 -999 -999
2008-09-18 07:47:50 51°21.255 2°53.794 -999 -999 -999 -999 -999
2008-09-18 07:48:00 51°21.285 2°53.806 -999 -999 -999 -999 -999
2008-09-18 07:48:10 51°21.315 2°53.82 -999 -999 -999 -999 -999
2008-09-18 07:48:20 51°21.344 2°53.835 -999 -999 -999 -999 -999
2008-09-18 07:48:30 51°21.374 2°53.85 -999 -999 -999 -999 -999
2008-09-18 07:48:40 51°21.403 2°53.865 -999 -999 -999 -999 -999
2008-09-18 07:48:50 51°21.433 2°53.881 -999 -999 -999 -999 -999
2008-09-18 07:49:00 51°21.462 2°53.896 -999 -999 -999 -999 -999
2008-09-18 07:49:10 51°21.492 2°53.911 -999 -999 -999 -999 -999
2008-09-18 07:49:20 51°21.522 2°53.927 -999 -999 -999 -999 -999
2008-09-18 07:49:30 51°21.551 2°53.941 -999 -999 -999 -999 -999
2008-09-18 07:49:40 51°21.581 2°53.955 -999 -999 -999 -999 -999
2008-09-18 07:49:50 51°21.612 2°53.967 -999 -999 -999 -999 -999
2008-09-18 07:50:00 51°21.642 2°53.979 -999 -999 -999 -999 -999
2008-09-18 07:50:10 51°21.672 2°53.992 -999 -999 -999 -999 -999
2008-09-18 07:50:20 51°21.703 2°54.005 -999 -999 -999 -999 -999
2008-09-18 07:50:30 51°21.732 2°54.02 -999 -999 -999 -999 -999
2008-09-18 07:50:40 51°21.762 2°54.036 -999 -999 -999 -999 -999
2008-09-18 07:50:50 51°21.791 2°54.052 -999 -999 -999 -999 -999
2008-09-18 07:51:00 51°21.821 2°54.069 -999 -999 -999 -999 -999
2008-09-18 07:51:10 51°21.85 2°54.085 -999 -999 -999 -999 -999
2008-09-18 07:51:20 51°21.879 2°54.101 -999 -999 -999 -999 -999
2008-09-18 07:51:30 51°21.909 2°54.118 -999 -999 -999 -999 -999
2008-09-18 07:51:40 51°21.938 2°54.134 -999 -999 -999 -999 -999
2008-09-18 07:51:50 51°21.967 2°54.151 -999 -999 -999 -999 -999
2008-09-18 07:52:00 51°21.997 2°54.167 -999 -999 -999 -999 -999
2008-09-18 07:52:10 51°22.026 2°54.184 -999 -999 -999 -999 -999
2008-09-18 07:52:20 51°22.056 2°54.201 -999 -999 -999 -999 -999
2008-09-18 07:52:30 51°22.085 2°54.218 -999 -999 -999 -999 -999
2008-09-18 07:52:40 51°22.115 2°54.234 -999 -999 -999 -999 -999
2008-09-18 07:52:50 51°22.144 2°54.251 -999 -999 -999 -999 -999
2008-09-18 07:53:00 51°22.173 2°54.268 -999 -999 -999 -999 -999
2008-09-18 07:53:10 51°22.202 2°54.285 -999 -999 -999 -999 -999
2008-09-18 07:53:20 51°22.232 2°54.302 -999 -999 -999 -999 -999
2008-09-18 07:53:30 51°22.261 2°54.32 -999 -999 -999 -999 -999
2008-09-18 07:53:40 51°22.29 2°54.337 -999 -999 -999 -999 -999
2008-09-18 07:53:50 51°22.319 2°54.354 -999 -999 -999 -999 -999
2008-09-18 07:54:00 51°22.348 2°54.372 -999 -999 -999 -999 -999
2008-09-18 07:54:10 51°22.377 2°54.39 -999 -999 -999 -999 -999
2008-09-18 07:54:20 51°22.406 2°54.409 -999 -999 -999 -999 -999
2008-09-18 07:54:30 51°22.434 2°54.428 -999 -999 -999 -999 -999
2008-09-18 07:54:40 51°22.463 2°54.448 -999 -999 -999 -999 -999
2008-09-18 07:54:50 51°22.492 2°54.466 -999 -999 -999 -999 -999
2008-09-18 07:55:00 51°22.521 2°54.483 -999 -999 -999 -999 -999
2008-09-18 07:55:10 51°22.55 2°54.499 -999 -999 -999 -999 -999
2008-09-18 07:55:20 51°22.58 2°54.515 -999 -999 -999 -999 -999
2008-09-18 07:55:30 51°22.609 2°54.532 -999 -999 -999 -999 -999
2008-09-18 07:55:40 51°22.638 2°54.549 -999 -999 -999 -999 -999
2008-09-18 07:55:50 51°22.667 2°54.566 -999 -999 -999 -999 -999
2008-09-18 07:56:00 51°22.696 2°54.584 -999 -999 -999 -999 -999
2008-09-18 07:56:10 51°22.725 2°54.601 -999 -999 -999 -999 -999
2008-09-18 07:56:20 51°22.754 2°54.618 -999 -999 -999 -999 -999
2008-09-18 07:56:30 51°22.783 2°54.637 -999 -999 -999 -999 -999
2008-09-18 07:56:40 51°22.812 2°54.655 -999 -999 -999 -999 -999
2008-09-18 07:56:50 51°22.841 2°54.673 -999 -999 -999 -999 -999
2008-09-18 07:57:00 51°22.87 2°54.69 -999 -999 -999 -999 -999
2008-09-18 07:57:10 51°22.899 2°54.707 -999 -999 -999 -999 -999
2008-09-18 07:57:20 51°22.928 2°54.724 -999 -999 -999 -999 -999
2008-09-18 07:57:30 51°22.957 2°54.741 -999 -999 -999 -999 -999
2008-09-18 07:57:40 51°22.986 2°54.758 -999 -999 -999 -999 -999
2008-09-18 07:57:50 51°23.014 2°54.776 -999 -999 -999 -999 -999
2008-09-18 07:58:00 51°23.043 2°54.795 -999 -999 -999 -999 -999
2008-09-18 07:58:10 51°23.072 2°54.812 -999 -999 -999 -999 -999
2008-09-18 07:58:20 51°23.101 2°54.829 -999 -999 -999 -999 -999
2008-09-18 07:58:30 51°23.13 2°54.846 -999 -999 -999 -999 -999
2008-09-18 07:58:40 51°23.159 2°54.863 -999 -999 -999 -999 -999
2008-09-18 07:58:50 51°23.188 2°54.879 -999 -999 -999 -999 -999
2008-09-18 07:59:00 51°23.217 2°54.896 -999 -999 -999 -999 -999
2008-09-18 07:59:10 51°23.245 2°54.913 -999 -999 -999 -999 -999
2008-09-18 07:59:20 51°23.274 2°54.93 -999 -999 -999 -999 -999
2008-09-18 07:59:30 51°23.303 2°54.948 -999 -999 -999 -999 -999
2008-09-18 07:59:40 51°23.331 2°54.966 -999 -999 -999 -999 -999
2008-09-18 07:59:50 51°23.359 2°54.985 -999 -999 -999 -999 -999
2008-09-18 08:00:00 51°23.387 2°55.005 -999 -999 -999 -999 -999
2008-09-18 08:00:10 51°23.415 2°55.025 -999 -999 -999 -999 -999
2008-09-18 08:00:20 51°23.443 2°55.046 -999 -999 -999 -999 -999
2008-09-18 08:00:30 51°23.471 2°55.067 -999 -999 -999 -999 -999
2008-09-18 08:00:40 51°23.499 2°55.087 -999 -999 -999 -999 -999
2008-09-18 08:00:50 51°23.527 2°55.107 -999 -999 -999 -999 -999
2008-09-18 08:01:00 51°23.555 2°55.127 -999 -999 -999 -999 -999
2008-09-18 08:01:10 51°23.584 2°55.146 -999 -999 -999 -999 -999
2008-09-18 08:01:20 51°23.613 2°55.164 -999 -999 -999 -999 -999
2008-09-18 08:01:30 51°23.642 2°55.182 -999 -999 -999 -999 -999
2008-09-18 08:01:40 51°23.671 2°55.2 -999 -999 -999 -999 -999
2008-09-18 08:01:50 51°23.699 2°55.218 -999 -999 -999 -999 -999
2008-09-18 08:02:00 51°23.728 2°55.236 -999 -999 -999 -999 -999
2008-09-18 08:02:10 51°23.757 2°55.254 -999 -999 -999 -999 -999
2008-09-18 08:02:20 51°23.786 2°55.272 -999 -999 -999 -999 -999
2008-09-18 08:02:30 51°23.815 2°55.29 -999 -999 -999 -999 -999
2008-09-18 08:02:40 51°23.843 2°55.307 -999 -999 -999 -999 -999
2008-09-18 08:02:50 51°23.871 2°55.324 -999 -999 -999 -999 -999
2008-09-18 08:03:00 51°23.9 2°55.342 -999 -999 -999 -999 -999
2008-09-18 08:03:10 51°23.928 2°55.359 -999 -999 -999 -999 -999
2008-09-18 08:03:20 51°23.956 2°55.377 -999 -999 -999 -999 -999
2008-09-18 08:03:30 51°23.985 2°55.394 -999 -999 -999 -999 -999
2008-09-18 08:03:40 51°24.013 2°55.412 -999 -999 -999 -999 -999
2008-09-18 08:03:50 51°24.042 2°55.429 -999 -999 -999 -999 -999
2008-09-18 08:04:00 51°24.07 2°55.447 -999 -999 -999 -999 -999
2008-09-18 08:04:10 51°24.098 2°55.465 -999 -999 -999 -999 -999
2008-09-18 08:04:20 51°24.126 2°55.485 -999 -999 -999 -999 -999
2008-09-18 08:04:30 51°24.154 2°55.504 -999 -999 -999 -999 -999
2008-09-18 08:04:40 51°24.183 2°55.522 -999 -999 -999 -999 -999
2008-09-18 08:04:50 51°24.211 2°55.54 -999 -999 -999 -999 -999
2008-09-18 08:05:00 51°24.24 2°55.558 -999 -999 -999 -999 -999
2008-09-18 08:05:10 51°24.268 2°55.576 -999 -999 -999 -999 -999
2008-09-18 08:05:20 51°24.297 2°55.593 -999 -999 -999 -999 -999
2008-09-18 08:05:30 51°24.326 2°55.611 -999 -999 -999 -999 -999
2008-09-18 08:05:40 51°24.354 2°55.629 -999 -999 -999 -999 -999
2008-09-18 08:05:50 51°24.383 2°55.647 -999 -999 -999 -999 -999
2008-09-18 08:06:00 51°24.412 2°55.665 -999 -999 -999 -999 -999
2008-09-18 08:06:10 51°24.441 2°55.683 -999 -999 -999 -999 -999
2008-09-18 08:06:20 51°24.47 2°55.7 -999 -999 -999 -999 -999
2008-09-18 08:06:30 51°24.498 2°55.718 -999 -999 -999 -999 -999
2008-09-18 08:06:40 51°24.527 2°55.737 -999 -999 -999 -999 -999
2008-09-18 08:06:50 51°24.556 2°55.755 -999 -999 -999 -999 -999
2008-09-18 08:07:00 51°24.585 2°55.774 -999 -999 -999 -999 -999
2008-09-18 08:07:10 51°24.613 2°55.793 -999 -999 -999 -999 -999
2008-09-18 08:07:20 51°24.641 2°55.812 -999 -999 -999 -999 -999
2008-09-18 08:07:30 51°24.669 2°55.832 -999 -999 -999 -999 -999
2008-09-18 08:07:40 51°24.698 2°55.85 -999 -999 -999 -999 -999
2008-09-18 08:07:50 51°24.726 2°55.869 -999 -999 -999 -999 -999
2008-09-18 08:08:00 51°24.755 2°55.889 -999 -999 -999 -999 -999
2008-09-18 08:08:10 51°24.783 2°55.909 -999 -999 -999 -999 -999
2008-09-18 08:08:20 51°24.81 2°55.929 -999 -999 -999 -999 -999
2008-09-18 08:08:30 51°24.839 2°55.949 -999 -999 -999 -999 -999
2008-09-18 08:08:40 51°24.867 2°55.968 -999 -999 -999 -999 -999
2008-09-18 08:08:50 51°24.895 2°55.989 -999 -999 -999 -999 -999
2008-09-18 08:09:00 51°24.924 2°56.008 -999 -999 -999 -999 -999
2008-09-18 08:09:10 51°24.952 2°56.028 -999 -999 -999 -999 -999
2008-09-18 08:09:20 51°24.981 2°56.046 -999 -999 -999 -999 -999
2008-09-18 08:09:30 51°25.01 2°56.062 -999 -999 -999 -999 -999
2008-09-18 08:09:40 51°25.038 2°56.079 -999 -999 -999 -999 -999
2008-09-18 08:09:50 51°25.067 2°56.096 -999 -999 -999 -999 -999
2008-09-18 08:10:00 51°25.095 2°56.112 -999 -999 -999 -999 -999
2008-09-18 08:10:10 51°25.124 2°56.129 -999 -999 -999 -999 -999
2008-09-18 08:10:20 51°25.152 2°56.145 -999 -999 -999 -999 -999
2008-09-18 08:10:30 51°25.18 2°56.164 -999 -999 -999 -999 -999
2008-09-18 08:10:40 51°25.207 2°56.183 -999 -999 -999 -999 -999
2008-09-18 08:10:50 51°25.235 2°56.202 -999 -999 -999 -999 -999
2008-09-18 08:11:00 51°25.262 2°56.222 -999 -999 -999 -999 -999
2008-09-18 08:11:10 51°25.29 2°56.241 -999 -999 -999 -999 -999
2008-09-18 08:11:20 51°25.317 2°56.258 -999 -999 -999 -999 -999
2008-09-18 08:11:30 51°25.345 2°56.277 -999 -999 -999 -999 -999
2008-09-18 08:11:40 51°25.373 2°56.295 -999 -999 -999 -999 -999
2008-09-18 08:11:50 51°25.4 2°56.313 -999 -999 -999 -999 -999
2008-09-18 08:12:00 51°25.428 2°56.332 -999 -999 -999 -999 -999
2008-09-18 08:12:10 51°25.455 2°56.351 -999 -999 -999 -999 -999
2008-09-18 08:12:20 51°25.482 2°56.371 -999 -999 -999 -999 -999
2008-09-18 08:12:30 51°25.509 2°56.388 -999 -999 -999 -999 -999
2008-09-18 08:12:40 51°25.537 2°56.404 -999 -999 -999 -999 -999
2008-09-18 08:12:50 51°25.565 2°56.42 -999 -999 -999 -999 -999
2008-09-18 08:13:00 51°25.593 2°56.435 -999 -999 -999 -999 -999
2008-09-18 08:13:10 51°25.621 2°56.451 -999 -999 -999 -999 -999
2008-09-18 08:13:20 51°25.649 2°56.467 -999 -999 -999 -999 -999
2008-09-18 08:13:30 51°25.677 2°56.484 -999 -999 -999 -999 -999
2008-09-18 08:13:40 51°25.704 2°56.502 -999 -999 -999 -999 -999
2008-09-18 08:13:50 51°25.731 2°56.521 -999 -999 -999 -999 -999
2008-09-18 08:14:00 51°25.758 2°56.541 -999 -999 -999 -999 -999
2008-09-18 08:14:10 51°25.784 2°56.561 -999 -999 -999 -999 -999
2008-09-18 08:14:20 51°25.811 2°56.581 -999 -999 -999 -999 -999
2008-09-18 08:14:30 51°25.837 2°56.601 -999 -999 -999 -999 -999
2008-09-18 08:14:40 51°25.864 2°56.622 -999 -999 -999 -999 -999
2008-09-18 08:14:50 51°25.89 2°56.644 -999 -999 -999 -999 -999
2008-09-18 08:15:00 51°25.917 2°56.663 -999 -999 -999 -999 -999
2008-09-18 08:15:10 51°25.945 2°56.679 -999 -999 -999 -999 -999
2008-09-18 08:15:20 51°25.973 2°56.695 -999 -999 -999 -999 -999
2008-09-18 08:15:30 51°26.001 2°56.711 -999 -999 -999 -999 -999
2008-09-18 08:15:40 51°26.029 2°56.728 -999 -999 -999 -999 -999
2008-09-18 08:15:50 51°26.057 2°56.744 -999 -999 -999 -999 -999
2008-09-18 08:16:00 51°26.085 2°56.762 -999 -999 -999 -999 -999
2008-09-18 08:16:10 51°26.112 2°56.779 -999 -999 -999 -999 -999
2008-09-18 08:16:20 51°26.14 2°56.797 -999 -999 -999 -999 -999
2008-09-18 08:16:30 51°26.168 2°56.815 -999 -999 -999 -999 -999
2008-09-18 08:16:40 51°26.196 2°56.833 -999 -999 -999 -999 -999
2008-09-18 08:16:50 51°26.223 2°56.85 -999 -999 -999 -999 -999
2008-09-18 08:17:00 51°26.251 2°56.867 -999 -999 -999 -999 -999
2008-09-18 08:17:10 51°26.279 2°56.883 -999 -999 -999 -999 -999
2008-09-18 08:17:20 51°26.307 2°56.899 -999 -999 -999 -999 -999
2008-09-18 08:17:30 51°26.336 2°56.913 -999 -999 -999 -999 -999
2008-09-18 08:17:40 51°26.364 2°56.928 -999 -999 -999 -999 -999
2008-09-18 08:17:50 51°26.392 2°56.942 -999 -999 -999 -999 -999
2008-09-18 08:18:00 51°26.421 2°56.957 -999 -999 -999 -999 -999
2008-09-18 08:18:10 51°26.449 2°56.973 -999 -999 -999 -999 -999
2008-09-18 08:18:20 51°26.477 2°56.988 -999 -999 -999 -999 -999
2008-09-18 08:18:30 51°26.505 2°57.003 -999 -999 -999 -999 -999
2008-09-18 08:18:40 51°26.534 2°57.019 -999 -999 -999 -999 -999
2008-09-18 08:18:50 51°26.562 2°57.034 -999 -999 -999 -999 -999
2008-09-18 08:19:00 51°26.59 2°57.051 -999 -999 -999 -999 -999
2008-09-18 08:19:10 51°26.618 2°57.068 -999 -999 -999 -999 -999
2008-09-18 08:19:20 51°26.646 2°57.086 -999 -999 -999 -999 -999
2008-09-18 08:19:30 51°26.673 2°57.104 -999 -999 -999 -999 -999
2008-09-18 08:19:40 51°26.701 2°57.121 -999 -999 -999 -999 -999
2008-09-18 08:19:50 51°26.729 2°57.139 -999 -999 -999 -999 -999
2008-09-18 08:20:00 51°26.756 2°57.156 -999 -999 -999 -999 -999
2008-09-18 08:20:10 51°26.784 2°57.174 -999 -999 -999 -999 -999
2008-09-18 08:20:20 51°26.811 2°57.192 -999 -999 -999 -999 -999
2008-09-18 08:20:30 51°26.839 2°57.21 -999 -999 -999 -999 -999
2008-09-18 08:20:40 51°26.867 2°57.227 -999 -999 -999 -999 -999
2008-09-18 08:20:50 51°26.895 2°57.244 -999 -999 -999 -999 -999
2008-09-18 08:21:00 51°26.922 2°57.26 -999 -999 -999 -999 -999
2008-09-18 08:21:10 51°26.951 2°57.276 -999 -999 -999 -999 -999
2008-09-18 08:21:20 51°26.979 2°57.291 -999 -999 -999 -999 -999
2008-09-18 08:21:30 51°27.008 2°57.306 -999 -999 -999 -999 -999
2008-09-18 08:21:40 51°27.036 2°57.32 -999 -999 -999 -999 -999
2008-09-18 08:21:50 51°27.064 2°57.337 -999 -999 -999 -999 -999
2008-09-18 08:22:00 51°27.092 2°57.354 -999 -999 -999 -999 -999
2008-09-18 08:22:10 51°27.119 2°57.373 -999 -999 -999 -999 -999
2008-09-18 08:22:20 51°27.146 2°57.392 -999 -999 -999 -999 -999
2008-09-18 08:22:30 51°27.173 2°57.413 -999 -999 -999 -999 -999
2008-09-18 08:22:40 51°27.2 2°57.434 -999 -999 -999 -999 -999
2008-09-18 08:22:50 51°27.226 2°57.455 -999 -999 -999 -999 -999
2008-09-18 08:23:00 51°27.252 2°57.477 -999 -999 -999 -999 -999
2008-09-18 08:23:10 51°27.279 2°57.498 -999 -999 -999 -999 -999
2008-09-18 08:23:20 51°27.305 2°57.519 -999 -999 -999 -999 -999
2008-09-18 08:23:30 51°27.331 2°57.541 -999 -999 -999 -999 -999
2008-09-18 08:23:40 51°27.357 2°57.563 -999 -999 -999 -999 -999
2008-09-18 08:23:50 51°27.384 2°57.584 -999 -999 -999 -999 -999
2008-09-18 08:24:00 51°27.41 2°57.605 -999 -999 -999 -999 -999
2008-09-18 08:24:10 51°27.436 2°57.626 -999 -999 -999 -999 -999
2008-09-18 08:24:20 51°27.462 2°57.648 -999 -999 -999 -999 -999
2008-09-18 08:24:30 51°27.489 2°57.67 -999 -999 -999 -999 -999
2008-09-18 08:24:40 51°27.515 2°57.691 -999 -999 -999 -999 -999
2008-09-18 08:24:50 51°27.541 2°57.712 -999 -999 -999 -999 -999
2008-09-18 08:25:00 51°27.567 2°57.734 -999 -999 -999 -999 -999
2008-09-18 08:25:10 51°27.593 2°57.754 -999 -999 -999 -999 -999
2008-09-18 08:25:20 51°27.616 2°57.773 -999 -999 -999 -999 -999
2008-09-18 08:25:30 51°27.645 2°57.796 -999 -999 -999 -999 -999
2008-09-18 08:25:40 51°27.671 2°57.817 -999 -999 -999 -999 -999
2008-09-18 08:25:50 51°27.697 2°57.838 -999 -999 -999 -999 -999
2008-09-18 08:26:00 51°27.722 2°57.86 -999 -999 -999 -999 -999
2008-09-18 08:26:10 51°27.748 2°57.882 -999 -999 -999 -999 -999
2008-09-18 08:26:20 51°27.773 2°57.905 -999 -999 -999 -999 -999
2008-09-18 08:26:30 51°27.799 2°57.927 -999 -999 -999 -999 -999
2008-09-18 08:26:40 51°27.824 2°57.95 -999 -999 -999 -999 -999
2008-09-18 08:26:50 51°27.849 2°57.973 -999 -999 -999 -999 -999
2008-09-18 08:27:00 51°27.874 2°57.997 -999 -999 -999 -999 -999
2008-09-18 08:27:10 51°27.897 2°58.018 -999 -999 -999 -999 -999
2008-09-18 08:27:20 51°27.925 2°58.044 -999 -999 -999 -999 -999
2008-09-18 08:27:30 51°27.95 2°58.067 -999 -999 -999 -999 -999
2008-09-18 08:27:40 51°27.973 2°58.088 -999 -999 -999 -999 -999
2008-09-18 08:27:50 51°28.001 2°58.112 -999 -999 -999 -999 -999
2008-09-18 08:28:00 51°28.025 2°58.131 -999 -999 -999 -999 -999
2008-09-18 08:28:10 51°28.054 2°58.154 -999 -999 -999 -999 -999
2008-09-18 08:28:20 51°28.08 2°58.174 -999 -999 -999 -999 -999
2008-09-18 08:28:30 51°28.106 2°58.195 -999 -999 -999 -999 -999
2008-09-18 08:28:40 51°28.132 2°58.215 -999 -999 -999 -999 -999
2008-09-18 08:28:50 51°28.158 2°58.236 -999 -999 -999 -999 -999
2008-09-18 08:29:00 51°28.184 2°58.257 -999 -999 -999 -999 -999
2008-09-18 08:29:10 51°28.21 2°58.277 -999 -999 -999 -999 -999
2008-09-18 08:29:20 51°28.236 2°58.299 -999 -999 -999 -999 -999
2008-09-18 08:29:30 51°28.262 2°58.32 -999 -999 -999 -999 -999
2008-09-18 08:29:40 51°28.286 2°58.338 -999 -999 -999 -999 -999
2008-09-18 08:29:50 51°28.314 2°58.361 -999 -999 -999 -999 -999
2008-09-18 08:30:00 51°28.34 2°58.382 -999 -999 -999 -999 -999
2008-09-18 08:30:10 51°28.366 2°58.404 -999 -999 -999 -999 -999
2008-09-18 08:30:20 51°28.392 2°58.425 -999 -999 -999 -999 -999
2008-09-18 08:30:30 51°28.417 2°58.446 -999 -999 -999 -999 -999
2008-09-18 08:30:40 51°28.443 2°58.467 -999 -999 -999 -999 -999
2008-09-18 08:30:50 51°28.469 2°58.488 -999 -999 -999 -999 -999
2008-09-18 08:31:00 51°28.496 2°58.508 -999 -999 -999 -999 -999
2008-09-18 08:31:10 51°28.522 2°58.529 -999 -999 -999 -999 -999
2008-09-18 08:31:20 51°28.548 2°58.55 -999 -999 -999 -999 -999
2008-09-18 08:31:30 51°28.574 2°58.571 -999 -999 -999 -999 -999
2008-09-18 08:31:40 51°28.6 2°58.593 -999 -999 -999 -999 -999
2008-09-18 08:31:50 51°28.626 2°58.614 -999 -999 -999 -999 -999
2008-09-18 08:32:00 51°28.653 2°58.635 -999 -999 -999 -999 -999
2008-09-18 08:32:10 51°28.679 2°58.657 -999 -999 -999 -999 -999
2008-09-18 08:32:20 51°28.705 2°58.678 -999 -999 -999 -999 -999
2008-09-18 08:32:30 51°28.732 2°58.7 -999 -999 -999 -999 -999
2008-09-18 08:32:40 51°28.758 2°58.722 -999 -999 -999 -999 -999
2008-09-18 08:32:50 51°28.784 2°58.743 -999 -999 -999 -999 -999
2008-09-18 08:33:00 51°28.81 2°58.765 -999 -999 -999 -999 -999
2008-09-18 08:33:10 51°28.836 2°58.787 -999 -999 -999 -999 -999
2008-09-18 08:33:20 51°28.862 2°58.808 -999 -999 -999 -999 -999
2008-09-18 08:33:30 51°28.888 2°58.831 -999 -999 -999 -999 -999
2008-09-18 08:33:40 51°28.912 2°58.857 -999 -999 -999 -999 -999
2008-09-18 08:33:50 51°28.934 2°58.886 -999 -999 -999 -999 -999
2008-09-18 08:34:00 51°28.954 2°58.919 -999 -999 -999 -999 -999
2008-09-18 08:34:10 51°28.973 2°58.953 -999 -999 -999 -999 -999
2008-09-18 08:34:20 51°28.991 2°58.989 -999 -999 -999 -999 -999
2008-09-18 08:34:30 51°29.009 2°59.025 -999 -999 -999 -999 -999
2008-09-18 08:34:40 51°29.026 2°59.062 -999 -999 -999 -999 -999
2008-09-18 08:34:50 51°29.043 2°59.099 -999 -999 -999 -999 -999
2008-09-18 08:35:00 51°29.059 2°59.138 -999 -999 -999 -999 -999
2008-09-18 08:35:10 51°29.074 2°59.177 -999 -999 -999 -999 -999
2008-09-18 08:35:20 51°29.089 2°59.217 -999 -999 -999 -999 -999
2008-09-18 08:35:30 51°29.103 2°59.256 -999 -999 -999 -999 -999
2008-09-18 08:35:40 51°29.118 2°59.296 -999 -999 -999 -999 -999
2008-09-18 08:35:50 51°29.133 2°59.336 -999 -999 -999 -999 -999
2008-09-18 08:36:00 51°29.147 2°59.376 -999 -999 -999 -999 -999
2008-09-18 08:36:10 51°29.16 2°59.416 -999 -999 -999 -999 -999
2008-09-18 08:36:20 51°29.173 2°59.457 -999 -999 -999 -999 -999
2008-09-18 08:36:30 51°29.187 2°59.497 -999 -999 -999 -999 -999
2008-09-18 08:36:40 51°29.202 2°59.537 -999 -999 -999 -999 -999
2008-09-18 08:36:50 51°29.216 2°59.577 -999 -999 -999 -999 -999
2008-09-18 08:37:00 51°29.229 2°59.617 -999 -999 -999 -999 -999
2008-09-18 08:37:10 51°29.244 2°59.656 -999 -999 -999 -999 -999
2008-09-18 08:37:20 51°29.259 2°59.695 -999 -999 -999 -999 -999
2008-09-18 08:37:30 51°29.275 2°59.733 -999 -999 -999 -999 -999
2008-09-18 08:37:40 51°29.292 2°59.769 -999 -999 -999 -999 -999
2008-09-18 08:37:50 51°29.31 2°59.805 -999 -999 -999 -999 -999
2008-09-18 08:38:00 51°29.329 2°59.839 -999 -999 -999 -999 -999
2008-09-18 08:38:10 51°29.348 2°59.873 -999 -999 -999 -999 -999
2008-09-18 08:38:20 51°29.367 2°59.907 -999 -999 -999 -999 -999
2008-09-18 08:38:30 51°29.385 2°59.942 -999 -999 -999 -999 -999
2008-09-18 08:38:40 51°29.403 2°59.978 -999 -999 -999 -999 -999
2008-09-18 08:38:50 51°29.421 3°0.013 -999 -999 -999 -999 -999
2008-09-18 08:39:00 51°29.439 3°0.049 -999 -999 -999 -999 -999
2008-09-18 08:39:10 51°29.457 3°0.084 -999 -999 -999 -999 -999
2008-09-18 08:39:20 51°29.475 3°0.119 -999 -999 -999 -999 -999
2008-09-18 08:39:30 51°29.494 3°0.153 -999 -999 -999 -999 -999
2008-09-18 08:39:40 51°29.514 3°0.187 -999 -999 -999 -999 -999
2008-09-18 08:39:50 51°29.533 3°0.22 -999 -999 -999 -999 -999
2008-09-18 08:40:00 51°29.553 3°0.253 -999 -999 -999 -999 -999
2008-09-18 08:40:10 51°29.572 3°0.288 -999 -999 -999 -999 -999
2008-09-18 08:40:20 51°29.591 3°0.322 -999 -999 -999 -999 -999
2008-09-18 08:40:30 51°29.61 3°0.356 -999 -999 -999 -999 -999
2008-09-18 08:40:40 51°29.629 3°0.39 -999 -999 -999 -999 -999
2008-09-18 08:40:50 51°29.648 3°0.423 -999 -999 -999 -999 -999
2008-09-18 08:41:00 51°29.668 3°0.456 -999 -999 -999 -999 -999
2008-09-18 08:41:10 51°29.687 3°0.489 -999 -999 -999 -999 -999
2008-09-18 08:41:20 51°29.706 3°0.523 -999 -999 -999 -999 -999
2008-09-18 08:41:30 51°29.725 3°0.557 -999 -999 -999 -999 -999
2008-09-18 08:41:40 51°29.744 3°0.591 -999 -999 -999 -999 -999
2008-09-18 08:41:50 51°29.763 3°0.624 -999 -999 -999 -999 -999
2008-09-18 08:42:00 51°29.784 3°0.655 -999 -999 -999 -999 -999
2008-09-18 08:42:10 51°29.804 3°0.687 -999 -999 -999 -999 -999
2008-09-18 08:42:20 51°29.824 3°0.718 -999 -999 -999 -999 -999
2008-09-18 08:42:30 51°29.844 3°0.75 -999 -999 -999 -999 -999
2008-09-18 08:42:40 51°29.864 3°0.782 -999 -999 -999 -999 -999
2008-09-18 08:42:50 51°29.883 3°0.816 -999 -999 -999 -999 -999
2008-09-18 08:43:00 51°29.904 3°0.847 -999 -999 -999 -999 -999
2008-09-18 08:43:10 51°29.925 3°0.878 -999 -999 -999 -999 -999
2008-09-18 08:43:20 51°29.946 3°0.907 -999 -999 -999 -999 -999
2008-09-18 08:43:30 51°29.968 3°0.936 -999 -999 -999 -999 -999
2008-09-18 08:43:40 51°29.99 3°0.964 -999 -999 -999 -999 -999
2008-09-18 08:43:50 51°30.012 3°0.993 -999 -999 -999 -999 -999
2008-09-18 08:44:00 51°30.034 3°1.022 -999 -999 -999 -999 -999
2008-09-18 08:44:10 51°30.056 3°1.051 -999 -999 -999 -999 -999
2008-09-18 08:44:20 51°30.077 3°1.082 -999 -999 -999 -999 -999
2008-09-18 08:44:30 51°30.099 3°1.111 -999 -999 -999 -999 -999
2008-09-18 08:44:40 51°30.121 3°1.14 -999 -999 -999 -999 -999
2008-09-18 08:44:50 51°30.144 3°1.165 -999 -999 -999 -999 -999
2008-09-18 08:45:00 51°30.169 3°1.187 -999 -999 -999 -999 -999
2008-09-18 08:45:10 51°30.195 3°1.207 -999 -999 -999 -999 -999
2008-09-18 08:45:20 51°30.221 3°1.227 -999 -999 -999 -999 -999
2008-09-18 08:45:30 51°30.247 3°1.245 -999 -999 -999 -999 -999
2008-09-18 08:45:40 51°30.274 3°1.263 -999 -999 -999 -999 -999
2008-09-18 08:45:50 51°30.3 3°1.282 -999 -999 -999 -999 -999
2008-09-18 08:46:00 51°30.326 3°1.303 -999 -999 -999 -999 -999
2008-09-18 08:46:10 51°30.35 3°1.326 -999 -999 -999 -999 -999
2008-09-18 08:46:20 51°30.374 3°1.351 -999 -999 -999 -999 -999
2008-09-18 08:46:30 51°30.398 3°1.375 -999 -999 -999 -999 -999
2008-09-18 08:46:40 51°30.422 3°1.4 -999 -999 -999 -999 -999
2008-09-18 08:46:50 51°30.445 3°1.426 -999 -999 -999 -999 -999
2008-09-18 08:47:00 51°30.469 3°1.451 -999 -999 -999 -999 -999
2008-09-18 08:47:10 51°30.492 3°1.477 -999 -999 -999 -999 -999
2008-09-18 08:47:20 51°30.516 3°1.502 -999 -999 -999 -999 -999
2008-09-18 08:47:30 51°30.54 3°1.527 -999 -999 -999 -999 -999
2008-09-18 08:47:40 51°30.563 3°1.552 -999 -999 -999 -999 -999
2008-09-18 08:47:50 51°30.586 3°1.578 -999 -999 -999 -999 -999
2008-09-18 08:48:00 51°30.604 3°1.601 -999 -999 -999 -999 -999
2008-09-18 08:48:10 51°30.62 3°1.62 -999 -999 -999 -999 -999
2008-09-18 08:48:20 51°30.633 3°1.637 -999 -999 -999 -999 -999
2008-09-18 08:48:30 51°30.645 3°1.651 -999 -999 -999 -999 -999
2008-09-18 08:48:40 51°30.656 3°1.662 -999 -999 -999 -999 -999
2008-09-18 08:48:50 51°30.665 3°1.671 -999 -999 -999 -999 -999
2008-09-18 08:49:00 51°30.673 3°1.678 -999 -999 -999 -999 -999
2008-09-18 08:49:10 51°30.68 3°1.684 -999 -999 -999 -999 -999
2008-09-18 08:49:20 51°30.685 3°1.689 -999 -999 -999 -999 -999
2008-09-18 08:49:30 51°30.69 3°1.694 -999 -999 -999 -999 -999
2008-09-18 08:49:40 51°30.693 3°1.697 -999 -999 -999 -999 -999
2008-09-18 08:49:50 51°30.696 3°1.7 -999 -999 -999 -999 -999
2008-09-18 08:50:00 51°30.699 3°1.701 -999 -999 -999 -999 -999
2008-09-18 08:50:10 51°30.7 3°1.702 -999 -999 -999 -999 -999
2008-09-18 08:50:20 51°30.702 3°1.702 -999 -999 -999 -999 -999
2008-09-18 08:50:30 51°30.701 3°1.698 -999 -999 -999 -999 -999
2008-09-18 08:50:40 51°30.7 3°1.694 -999 -999 -999 -999 -999
2008-09-18 08:50:50 51°30.699 3°1.689 -999 -999 -999 -999 -999
2008-09-18 08:51:00 51°30.697 3°1.684 -999 -999 -999 -999 -999
2008-09-18 08:51:10 51°30.696 3°1.679 -999 -999 -999 -999 -999
2008-09-18 08:51:20 51°30.694 3°1.673 -999 -999 -999 -999 -999
2008-09-18 08:51:30 51°30.693 3°1.668 -999 -999 -999 -999 -999
2008-09-18 08:51:40 51°30.691 3°1.662 -999 -999 -999 -999 -999
2008-09-18 08:51:50 51°30.69 3°1.657 -999 -999 -999 -999 -999
2008-09-18 08:52:00 51°30.688 3°1.651 -999 -999 -999 -999 -999
2008-09-18 08:52:10 51°30.686 3°1.646 -999 -999 -999 -999 -999
2008-09-18 08:52:20 51°30.685 3°1.64 -999 -999 -999 -999 -999
2008-09-18 08:52:30 51°30.683 3°1.634 -999 -999 -999 -999 -999
2008-09-18 08:52:40 51°30.681 3°1.629 -999 -999 -999 -999 -999
2008-09-18 08:52:50 51°30.679 3°1.623 -999 -999 -999 -999 -999
2008-09-18 08:53:00 51°30.678 3°1.62 -999 -999 -999 -999 -999
2008-09-18 08:53:10 51°30.677 3°1.618 -999 -999 -999 -999 -999
2008-09-18 08:53:20 51°30.677 3°1.618 -999 -999 -999 -999 -999
2008-09-18 08:53:30 51°30.677 3°1.62 -999 -999 -999 -999 -999
2008-09-18 08:53:40 51°30.678 3°1.622 -999 -999 -999 -999 -999
2008-09-18 08:53:50 51°30.678 3°1.623 -999 -999 -999 -999 -999
2008-09-18 08:54:00 51°30.678 3°1.625 -999 -999 -999 -999 -999
2008-09-18 08:54:10 51°30.678 3°1.626 -999 -999 -999 -999 -999
2008-09-18 08:54:20 51°30.678 3°1.627 -999 -999 -999 -999 -999
2008-09-18 08:54:30 51°30.677 3°1.627 -999 -999 -999 -999 -999
2008-09-18 08:54:40 51°30.677 3°1.627 -999 -999 -999 -999 -999
2008-09-18 08:54:50 51°30.676 3°1.626 -999 -999 -999 -999 -999
2008-09-18 08:55:00 51°30.676 3°1.626 -999 -999 -999 -999 -999
2008-09-18 08:55:10 51°30.676 3°1.625 -999 -999 -999 -999 -999
2008-09-18 08:55:20 51°30.675 3°1.624 -999 -999 -999 -999 -999
2008-09-18 08:55:30 51°30.675 3°1.623 -999 -999 -999 -999 -999
2008-09-18 08:55:40 51°30.674 3°1.623 -999 -999 -999 -999 -999
2008-09-18 08:55:50 51°30.674 3°1.624 -999 -999 -999 -999 -999
2008-09-18 08:56:00 51°30.674 3°1.624 -999 -999 -999 -999 -999
2008-09-18 08:56:10 51°30.675 3°1.625 -999 -999 -999 -999 -999
2008-09-18 08:56:20 51°30.675 3°1.626 -999 -999 -999 -999 -999
2008-09-18 08:56:30 51°30.675 3°1.627 -999 -999 -999 -999 -999
2008-09-18 08:56:40 51°30.675 3°1.627 -999 -999 -999 -999 -999
2008-09-18 08:56:50 51°30.675 3°1.628 -999 -999 -999 -999 -999
2008-09-18 08:57:00 51°30.675 3°1.628 -999 -999 -999 -999 -999
2008-09-18 08:57:10 51°30.676 3°1.628 -999 -999 -999 -999 -999
2008-09-18 08:57:20 51°30.676 3°1.627 -999 -999 -999 -999 -999
2008-09-18 08:57:30 51°30.676 3°1.626 -999 -999 -999 -999 -999
2008-09-18 08:57:40 51°30.676 3°1.626 -999 -999 -999 -999 -999
2008-09-18 08:57:50 51°30.675 3°1.624 -999 -999 -999 -999 -999
2008-09-18 08:58:00 51°30.675 3°1.624 -999 -999 -999 -999 -999
2008-09-18 08:58:10 51°30.675 3°1.623 -999 -999 -999 -999 -999
2008-09-18 08:58:20 51°30.675 3°1.623 -999 -999 -999 -999 -999
2008-09-18 08:58:30 51°30.676 3°1.623 -999 -999 -999 -999 -999
2008-09-18 08:58:40 51°30.676 3°1.623 -999 -999 -999 -999 -999
2008-09-18 08:58:50 51°30.676 3°1.624 -999 -999 -999 -999 -999
2008-09-18 08:59:00 51°30.676 3°1.624 -999 -999 -999 -999 -999
2008-09-18 08:59:10 51°30.676 3°1.625 -999 -999 -999 -999 -999
2008-09-18 08:59:20 51°30.676 3°1.626 -999 -999 -999 -999 -999
2008-09-18 08:59:30 51°30.676 3°1.626 -999 -999 -999 -999 -999
2008-09-18 08:59:40 51°30.676 3°1.626 -999 -999 -999 -999 -999
2008-09-18 08:59:50 51°30.675 3°1.626 -999 -999 -999 -999 -999
2008-09-18 09:00:00 51°30.675 3°1.626 -999 -999 -999 -999 -999
2008-09-18 09:00:10 51°30.675 3°1.626 -999 -999 -999 -999 -999
2008-09-18 09:00:20 51°30.675 3°1.626 -999 -999 -999 -999 -999
2008-09-18 09:00:30 51°30.675 3°1.625 -999 -999 -999 -999 -999
2008-09-18 09:00:40 51°30.675 3°1.624 -999 -999 -999 -999 -999
2008-09-18 09:00:50 51°30.675 3°1.624 -999 -999 -999 -999 -999
2008-09-18 09:01:00 51°30.675 3°1.624 -999 -999 -999 -999 -999
2008-09-18 09:01:10 51°30.675 3°1.625 -999 -999 -999 -999 -999
2008-09-18 09:01:20 51°30.675 3°1.625 -999 -999 -999 -999 -999
2008-09-18 09:01:30 51°30.675 3°1.625 -999 -999 -999 -999 -999
2008-09-18 09:01:40 51°30.675 3°1.626 -999 -999 -999 -999 -999
2008-09-18 09:01:50 51°30.675 3°1.626 -999 -999 -999 -999 -999
2008-09-18 09:02:00 51°30.675 3°1.626 -999 -999 -999 -999 -999
2008-09-18 09:02:10 51°30.675 3°1.626 -999 -999 -999 -999 -999
2008-09-18 09:02:20 51°30.675 3°1.627 -999 -999 -999 -999 -999
2008-09-18 09:02:30 51°30.675 3°1.627 -999 -999 -999 -999 -999
2008-09-18 09:02:40 51°30.675 3°1.626 -999 -999 -999 -999 -999
2008-09-18 09:02:50 51°30.675 3°1.626 -999 -999 -999 -999 -999
2008-09-18 09:03:00 51°30.675 3°1.626 -999 -999 -999 -999 -999
2008-09-18 09:03:10 51°30.675 3°1.625 -999 -999 -999 -999 -999
2008-09-18 09:03:20 51°30.675 3°1.625 -999 -999 -999 -999 -999
2008-09-18 09:03:30 51°30.675 3°1.625 -999 -999 -999 -999 -999
2008-09-18 09:03:40 51°30.675 3°1.625 -999 -999 -999 -999 -999
2008-09-18 09:03:50 51°30.675 3°1.625 -999 -999 -999 -999 -999
2008-09-18 09:04:00 51°30.675 3°1.625 -999 -999 -999 -999 -999
2008-09-18 09:04:10 51°30.675 3°1.625 -999 -999 -999 -999 -999
2008-09-18 09:04:20 51°30.676 3°1.625 -999 -999 -999 -999 -999
2008-09-18 09:04:30 51°30.676 3°1.625 -999 -999 -999 -999 -999
2008-09-18 09:04:40 51°30.676 3°1.625 -999 -999 -999 -999 -999
2008-09-18 09:04:50 51°30.676 3°1.625 -999 -999 -999 -999 -999
2008-09-18 09:05:00 51°30.676 3°1.626 -999 -999 -999 -999 -999
2008-09-18 09:05:10 51°30.676 3°1.625 -999 -999 -999 -999 -999
2008-09-18 09:05:20 51°30.676 3°1.626 -999 -999 -999 -999 -999
2008-09-18 09:05:30 51°30.676 3°1.625 -999 -999 -999 -999 -999
2008-09-18 09:05:40 51°30.676 3°1.625 -999 -999 -999 -999 -999
2008-09-18 09:05:50 51°30.675 3°1.625 -999 -999 -999 -999 -999
2008-09-18 09:06:00 51°30.675 3°1.625 -999 -999 -999 -999 -999
2008-09-18 09:06:10 51°30.675 3°1.625 -999 -999 -999 -999 -999
2008-09-18 09:06:20 51°30.675 3°1.624 -999 -999 -999 -999 -999
2008-09-18 09:06:30 51°30.676 3°1.624 -999 -999 -999 -999 -999
2008-09-18 09:06:40 51°30.676 3°1.624 -999 -999 -999 -999 -999
2008-09-18 09:06:50 51°30.676 3°1.624 -999 -999 -999 -999 -999
2008-09-18 09:07:00 51°30.676 3°1.624 -999 -999 -999 -999 -999
2008-09-18 09:07:10 51°30.676 3°1.624 -999 -999 -999 -999 -999
2008-09-18 09:07:20 51°30.677 3°1.624 -999 -999 -999 -999 -999
2008-09-18 09:07:30 51°30.677 3°1.623 -999 -999 -999 -999 -999
2008-09-18 09:07:40 51°30.677 3°1.623 -999 -999 -999 -999 -999
2008-09-18 09:07:50 51°30.677 3°1.623 -999 -999 -999 -999 -999
2008-09-18 09:08:00 51°30.677 3°1.623 -999 -999 -999 -999 -999
2008-09-18 09:08:10 51°30.677 3°1.622 -999 -999 -999 -999 -999
2008-09-18 09:08:20 51°30.677 3°1.622 -999 -999 -999 -999 -999
2008-09-18 09:08:30 51°30.677 3°1.622 -999 -999 -999 -999 -999
2008-09-18 09:08:40 51°30.677 3°1.622 -999 -999 -999 -999 -999
2008-09-18 09:08:50 51°30.678 3°1.621 -999 -999 -999 -999 -999
2008-09-18 09:09:00 51°30.678 3°1.621 -999 -999 -999 -999 -999
2008-09-18 09:09:10 51°30.678 3°1.621 -999 -999 -999 -999 -999
2008-09-18 09:09:20 51°30.678 3°1.622 -999 -999 -999 -999 -999
2008-09-18 09:09:30 51°30.678 3°1.621 -999 -999 -999 -999 -999
2008-09-18 09:09:40 51°30.678 3°1.621 -999 -999 -999 -999 -999
2008-09-18 09:09:50 51°30.678 3°1.621 -999 -999 -999 -999 -999
2008-09-18 09:10:00 51°30.679 3°1.621 -999 -999 -999 -999 -999
2008-09-18 09:10:10 51°30.679 3°1.621 -999 -999 -999 -999 -999
2008-09-18 09:10:20 51°30.679 3°1.621 -999 -999 -999 -999 -999
2008-09-18 09:10:30 51°30.679 3°1.621 -999 -999 -999 -999 -999
2008-09-18 09:10:40 51°30.679 3°1.621 -999 -999 -999 -999 -999
2008-09-18 09:10:50 51°30.679 3°1.621 -999 -999 -999 -999 -999
2008-09-18 09:11:00 51°30.678 3°1.621 -999 -999 -999 -999 -999
2008-09-18 09:11:10 51°30.678 3°1.621 -999 -999 -999 -999 -999
2008-09-18 09:11:20 51°30.678 3°1.621 -999 -999 -999 -999 -999
2008-09-18 09:11:30 51°30.678 3°1.622 -999 -999 -999 -999 -999
2008-09-18 09:11:40 51°30.677 3°1.622 -999 -999 -999 -999 -999
2008-09-18 09:11:50 51°30.677 3°1.622 -999 -999 -999 -999 -999
2008-09-18 09:12:00 51°30.677 3°1.623 -999 -999 -999 -999 -999
2008-09-18 09:12:10 51°30.676 3°1.623 -999 -999 -999 -999 -999
2008-09-18 09:12:20 51°30.676 3°1.623 -999 -999 -999 -999 -999
2008-09-18 09:12:30 51°30.676 3°1.624 -999 -999 -999 -999 -999
2008-09-18 09:12:40 51°30.676 3°1.623 -999 -999 -999 -999 -999
2008-09-18 09:12:50 51°30.676 3°1.623 -999 -999 -999 -999 -999
2008-09-18 09:13:00 51°30.676 3°1.623 -999 -999 -999 -999 -999
2008-09-18 09:13:10 51°30.676 3°1.623 -999 -999 -999 -999 -999
2008-09-18 09:13:20 51°30.676 3°1.623 -999 -999 -999 -999 -999
2008-09-18 09:13:30 51°30.675 3°1.623 -999 -999 -999 -999 -999
2008-09-18 09:13:40 51°30.675 3°1.623 -999 -999 -999 -999 -999
2008-09-18 09:13:50 51°30.675 3°1.623 -999 -999 -999 -999 -999
2008-09-18 09:14:00 51°30.675 3°1.623 -999 -999 -999 -999 -999
2008-09-18 09:14:10 51°30.675 3°1.623 -999 -999 -999 -999 -999
2008-09-18 09:14:20 51°30.675 3°1.623 -999 -999 -999 -999 -999
2008-09-18 09:14:30 51°30.675 3°1.623 -999 -999 -999 -999 -999
2008-09-18 09:14:40 51°30.675 3°1.623 -999 -999 -999 -999 -999
2008-09-18 09:14:50 51°30.675 3°1.623 -999 -999 -999 -999 -999
2008-09-18 09:15:00 51°30.675 3°1.623 -999 -999 -999 -999 -999
2008-09-18 09:15:10 51°30.675 3°1.623 -999 -999 -999 -999 -999
2008-09-18 09:15:20 51°30.675 3°1.623 -999 -999 -999 -999 -999
2008-09-18 09:15:30 51°30.675 3°1.623 -999 -999 -999 -999 -999
2008-09-18 09:15:40 51°30.675 3°1.623 -999 -999 -999 -999 -999
2008-09-18 09:15:50 51°30.676 3°1.622 -999 -999 -999 -999 -999
2008-09-18 09:16:00 51°30.676 3°1.622 -999 -999 -999 -999 -999
2008-09-18 09:16:10 51°30.676 3°1.622 -999 -999 -999 -999 -999
2008-09-18 09:16:20 51°30.676 3°1.623 -999 -999 -999 -999 -999
2008-09-18 09:16:30 51°30.676 3°1.623 -999 -999 -999 -999 -999
2008-09-18 09:16:40 51°30.676 3°1.623 -999 -999 -999 -999 -999
2008-09-18 09:16:50 51°30.676 3°1.623 -999 -999 -999 -999 -999
2008-09-18 09:17:00 51°30.676 3°1.623 -999 -999 -999 -999 -999
2008-09-18 09:17:10 51°30.676 3°1.623 -999 -999 -999 -999 -999
2008-09-18 09:17:20 51°30.676 3°1.623 -999 -999 -999 -999 -999
2008-09-18 09:17:30 51°30.676 3°1.623 -999 -999 -999 -999 -999
2008-09-18 09:17:40 51°30.676 3°1.623 -999 -999 -999 -999 -999
2008-09-18 09:17:50 51°30.675 3°1.624 -999 -999 -999 -999 -999
2008-09-18 09:18:00 51°30.675 3°1.623 -999 -999 -999 -999 -999
2008-09-18 09:18:10 51°30.675 3°1.623 -999 -999 -999 -999 -999
2008-09-18 09:18:20 51°30.675 3°1.623 -999 -999 -999 -999 -999
2008-09-18 09:18:30 51°30.675 3°1.624 -999 -999 -999 -999 -999
2008-09-18 09:18:40 51°30.675 3°1.623 -999 -999 -999 -999 -999
2008-09-18 09:18:50 51°30.675 3°1.624 -999 -999 -999 -999 -999
2008-09-18 09:19:00 51°30.675 3°1.624 -999 -999 -999 -999 -999
2008-09-18 09:19:10 51°30.675 3°1.624 -999 -999 -999 -999 -999
2008-09-18 09:19:20 51°30.675 3°1.624 -999 -999 -999 -999 -999
2008-09-18 09:19:30 51°30.675 3°1.623 -999 -999 -999 -999 -999
2008-09-18 09:19:40 51°30.676 3°1.623 -999 -999 -999 -999 -999
2008-09-18 09:19:50 51°30.676 3°1.623 -999 -999 -999 -999 -999
2008-09-18 09:20:00 51°30.676 3°1.623 -999 -999 -999 -999 -999
2008-09-18 09:20:10 51°30.676 3°1.623 -999 -999 -999 -999 -999
2008-09-18 09:20:20 51°30.676 3°1.623 -999 -999 -999 -999 -999
2008-09-18 09:20:30 51°30.676 3°1.623 -999 -999 -999 -999 -999
2008-09-18 09:20:40 51°30.677 3°1.623 -999 -999 -999 -999 -999
2008-09-18 09:20:50 51°30.677 3°1.623 -999 -999 -999 -999 -999
2008-09-18 09:21:00 51°30.677 3°1.623 -999 -999 -999 -999 -999
2008-09-18 09:21:10 51°30.677 3°1.624 -999 -999 -999 -999 -999
2008-09-18 09:21:20 51°30.676 3°1.624 -999 -999 -999 -999 -999
2008-09-18 09:21:30 51°30.676 3°1.624 -999 -999 -999 -999 -999
2008-09-18 09:21:40 51°30.676 3°1.624 -999 -999 -999 -999 -999
2008-09-18 09:21:50 51°30.676 3°1.624 -999 -999 -999 -999 -999
2008-09-18 09:22:00 51°30.676 3°1.624 -999 -999 -999 -999 -999
2008-09-18 09:22:10 51°30.676 3°1.624 -999 -999 -999 -999 -999
2008-09-18 09:22:20 51°30.676 3°1.624 -999 -999 -999 -999 -999
2008-09-18 09:22:30 51°30.676 3°1.624 -999 -999 -999 -999 -999
2008-09-18 09:22:40 51°30.676 3°1.624 -999 -999 -999 -999 -999
2008-09-18 09:22:50 51°30.676 3°1.624 -999 -999 -999 -999 -999
2008-09-18 09:23:00 51°30.677 3°1.624 -999 -999 -999 -999 -999
2008-09-18 09:23:10 51°30.677 3°1.624 -999 -999 -999 -999 -999
2008-09-18 09:23:20 51°30.677 3°1.624 -999 -999 -999 -999 -999
2008-09-18 09:23:30 51°30.677 3°1.624 -999 -999 -999 -999 -999
2008-09-18 09:23:40 51°30.677 3°1.624 -999 -999 -999 -999 -999
2008-09-18 09:23:50 51°30.677 3°1.624 -999 -999 -999 -999 -999
2008-09-18 09:24:00 51°30.677 3°1.624 -999 -999 -999 -999 -999
2008-09-18 09:24:10 51°30.677 3°1.624 -999 -999 -999 -999 -999
2008-09-18 09:24:20 51°30.677 3°1.624 -999 -999 -999 -999 -999
2008-09-18 09:24:30 51°30.677 3°1.624 -999 -999 -999 -999 -999
2008-09-18 09:24:40 51°30.677 3°1.624 -999 -999 -999 -999 -999
2008-09-18 09:24:50 51°30.677 3°1.624 -999 -999 -999 -999 -999
2008-09-18 09:25:00 51°30.677 3°1.624 -999 -999 -999 -999 -999
2008-09-18 09:25:10 51°30.677 3°1.623 -999 -999 -999 -999 -999
2008-09-18 09:25:20 51°30.677 3°1.623 -999 -999 -999 -999 -999
2008-09-18 09:25:30 51°30.678 3°1.623 -999 -999 -999 -999 -999
2008-09-18 09:25:40 51°30.678 3°1.623 -999 -999 -999 -999 -999
2008-09-18 09:25:50 51°30.678 3°1.623 -999 -999 -999 -999 -999
2008-09-18 09:26:00 51°30.678 3°1.623 -999 -999 -999 -999 -999
2008-09-18 09:26:10 51°30.678 3°1.624 -999 -999 -999 -999 -999
2008-09-18 09:26:20 51°30.678 3°1.624 -999 -999 -999 -999 -999
2008-09-18 09:26:30 51°30.678 3°1.624 -999 -999 -999 -999 -999
2008-09-18 09:26:40 51°30.677 3°1.624 -999 -999 -999 -999 -999
2008-09-18 09:26:50 51°30.678 3°1.624 -999 -999 -999 -999 -999
2008-09-18 09:27:00 51°30.677 3°1.624 -999 -999 -999 -999 -999
2008-09-18 09:27:10 51°30.677 3°1.624 -999 -999 -999 -999 -999
2008-09-18 09:27:20 51°30.677 3°1.624 -999 -999 -999 -999 -999
2008-09-18 09:27:30 51°30.677 3°1.624 -999 -999 -999 -999 -999
2008-09-18 09:27:40 51°30.677 3°1.624 -999 -999 -999 -999 -999
2008-09-18 09:27:50 51°30.677 3°1.624 -999 -999 -999 -999 -999
2008-09-18 09:28:00 51°30.677 3°1.625 -999 -999 -999 -999 -999
2008-09-18 09:28:10 51°30.676 3°1.624 -999 -999 -999 -999 -999
2008-09-18 09:28:20 51°30.676 3°1.625 -999 -999 -999 -999 -999
2008-09-18 09:28:30 51°30.676 3°1.625 -999 -999 -999 -999 -999
2008-09-18 09:28:40 51°30.676 3°1.625 -999 -999 -999 -999 -999
2008-09-18 09:28:50 51°30.676 3°1.625 -999 -999 -999 -999 -999
2008-09-18 09:29:00 51°30.676 3°1.625 -999 -999 -999 -999 -999
2008-09-18 09:29:10 51°30.676 3°1.626 -999 -999 -999 -999 -999
2008-09-18 09:29:20 51°30.676 3°1.626 -999 -999 -999 -999 -999
2008-09-18 09:29:30 51°30.676 3°1.626 -999 -999 -999 -999 -999
2008-09-18 09:29:40 51°30.676 3°1.625 -999 -999 -999 -999 -999
2008-09-18 09:29:50 51°30.676 3°1.625 -999 -999 -999 -999 -999
2008-09-18 09:30:00 51°30.676 3°1.625 -999 -999 -999 -999 -999
2008-09-18 09:30:10 51°30.676 3°1.625 -999 -999 -999 -999 -999
2008-09-18 09:30:20 51°30.677 3°1.625 -999 -999 -999 -999 -999
2008-09-18 09:30:30 51°30.677 3°1.625 -999 -999 -999 -999 -999
2008-09-18 09:30:40 51°30.677 3°1.625 -999 -999 -999 -999 -999
2008-09-18 09:30:50 51°30.677 3°1.625 -999 -999 -999 -999 -999
2008-09-18 09:31:00 51°30.678 3°1.625 -999 -999 -999 -999 -999
2008-09-18 09:31:10 51°30.677 3°1.625 -999 -999 -999 -999 -999
2008-09-18 09:31:20 51°30.677 3°1.625 -999 -999 -999 -999 -999
2008-09-18 09:31:30 51°30.677 3°1.625 -999 -999 -999 -999 -999
2008-09-18 09:31:40 51°30.676 3°1.625 -999 -999 -999 -999 -999
2008-09-18 09:31:50 51°30.676 3°1.625 -999 -999 -999 -999 -999
2008-09-18 09:32:00 51°30.676 3°1.625 -999 -999 -999 -999 -999
2008-09-18 09:32:10 51°30.676 3°1.625 -999 -999 -999 -999 -999
2008-09-18 09:32:20 51°30.676 3°1.625 -999 -999 -999 -999 -999
2008-09-18 09:32:30 51°30.675 3°1.625 -999 -999 -999 -999 -999
2008-09-18 09:32:40 51°30.675 3°1.625 -999 -999 -999 -999 -999
2008-09-18 09:32:50 51°30.675 3°1.625 -999 -999 -999 -999 -999
2008-09-18 09:33:00 51°30.675 3°1.625 -999 -999 -999 -999 -999
2008-09-18 09:33:10 51°30.675 3°1.625 -999 -999 -999 -999 -999
2008-09-18 09:33:20 51°30.675 3°1.626 -999 -999 -999 -999 -999
2008-09-18 09:33:30 51°30.675 3°1.626 -999 -999 -999 -999 -999
2008-09-18 09:33:40 51°30.675 3°1.626 -999 -999 -999 -999 -999
2008-09-18 09:33:50 51°30.675 3°1.626 -999 -999 -999 -999 -999
2008-09-18 09:34:00 51°30.675 3°1.626 -999 -999 -999 -999 -999
2008-09-18 09:34:10 51°30.675 3°1.626 -999 -999 -999 -999 -999
2008-09-18 09:34:20 51°30.675 3°1.626 -999 -999 -999 -999 -999
2008-09-18 09:34:30 51°30.675 3°1.626 -999 -999 -999 -999 -999
2008-09-18 09:34:40 51°30.674 3°1.626 -999 -999 -999 -999 -999
2008-09-18 09:34:50 51°30.674 3°1.626 -999 -999 -999 -999 -999
2008-09-18 09:35:00 51°30.674 3°1.626 -999 -999 -999 -999 -999
2008-09-18 09:35:10 51°30.674 3°1.626 -999 -999 -999 -999 -999
2008-09-18 09:35:20 51°30.674 3°1.625 -999 -999 -999 -999 -999
2008-09-18 09:35:30 51°30.674 3°1.625 -999 -999 -999 -999 -999
2008-09-18 09:35:40 51°30.674 3°1.625 -999 -999 -999 -999 -999
2008-09-18 09:35:50 51°30.674 3°1.625 -999 -999 -999 -999 -999
2008-09-18 09:36:00 51°30.674 3°1.626 -999 -999 -999 -999 -999
2008-09-18 09:36:10 51°30.674 3°1.626 -999 -999 -999 -999 -999
2008-09-18 09:36:20 51°30.674 3°1.626 -999 -999 -999 -999 -999
2008-09-18 09:36:30 51°30.675 3°1.626 -999 -999 -999 -999 -999
2008-09-18 09:36:40 51°30.675 3°1.627 -999 -999 -999 -999 -999
2008-09-18 09:36:50 51°30.675 3°1.627 -999 -999 -999 -999 -999
2008-09-18 09:37:00 51°30.675 3°1.627 -999 -999 -999 -999 -999
2008-09-18 09:37:10 51°30.675 3°1.627 -999 -999 -999 -999 -999
2008-09-18 09:37:20 51°30.675 3°1.627 -999 -999 -999 -999 -999
2008-09-18 09:37:30 51°30.674 3°1.626 -999 -999 -999 -999 -999
2008-09-18 09:37:40 51°30.674 3°1.627 -999 -999 -999 -999 -999
2008-09-18 09:37:50 51°30.674 3°1.627 -999 -999 -999 -999 -999
2008-09-18 09:38:00 51°30.674 3°1.627 -999 -999 -999 -999 -999
2008-09-18 09:38:10 51°30.674 3°1.626 -999 -999 -999 -999 -999
2008-09-18 09:38:20 51°30.674 3°1.626 -999 -999 -999 -999 -999
2008-09-18 09:38:30 51°30.675 3°1.626 -999 -999 -999 -999 -999
2008-09-18 09:38:40 51°30.675 3°1.626 -999 -999 -999 -999 -999
2008-09-18 09:38:50 51°30.675 3°1.626 -999 -999 -999 -999 -999
2008-09-18 09:39:00 51°30.675 3°1.626 -999 -999 -999 -999 -999
2008-09-18 09:39:10 51°30.675 3°1.626 -999 -999 -999 -999 -999
2008-09-18 09:39:20 51°30.675 3°1.625 -999 -999 -999 -999 -999
2008-09-18 09:39:30 51°30.676 3°1.625 -999 -999 -999 -999 -999
2008-09-18 09:39:40 51°30.676 3°1.625 -999 -999 -999 -999 -999
2008-09-18 09:39:50 51°30.676 3°1.625 -999 -999 -999 -999 -999
2008-09-18 09:40:00 51°30.676 3°1.625 -999 -999 -999 -999 -999
2008-09-18 09:40:10 51°30.676 3°1.624 -999 -999 -999 -999 -999
2008-09-18 09:40:20 51°30.677 3°1.624 -999 -999 -999 -999 -999
2008-09-18 09:40:30 51°30.677 3°1.624 -999 -999 -999 -999 -999
2008-09-18 09:40:40 51°30.677 3°1.624 -999 -999 -999 -999 -999
2008-09-18 09:40:50 51°30.677 3°1.624 -999 -999 -999 -999 -999
2008-09-18 09:41:00 51°30.677 3°1.624 -999 -999 -999 -999 -999